Crown Of Scandinavia — OXRA6 — position and weather

sailwx.info

Track history (hours):
 
Tides and Currents Weather Stations Pressure Air Temp Water Temp Dewpoint Dewpoint Depression Visibility Wind Speed Wind Dir Waves Ship Positions

Crown Of Scandinavia

Last reported at 2017-Aug-18 10:31 UTC. Time now 2017-Aug-18 10:51 UTC.
Position N 55°42' E 012°36'.

Length 171 m; draft 6.3 m.

Type: Ship. MMSI: 219592000.

Date/timePositionNaut miles runAvg speedWind from/ knotsBaromVisibWave heightAir tempDewpointWater temp
2017-Aug-18 10:31N 55°42' E 012°36'0 0.0
2017-Aug-18 10:01N 55°42' E 012°36'0 0.0
2017-Aug-18 09:31N 55°42' E 012°36'0 0.0
2017-Aug-18 09:01N 55°42' E 012°36'0 0.0
2017-Aug-18 08:31N 55°42' E 012°36'0 0.0
2017-Aug-18 08:01N 55°42' E 012°36'0 0.7
2017-Aug-18 07:31N 55°42' E 012°36'5 9.2
2017-Aug-18 07:00N 55°46' E 012°41'714.0
2017-Aug-18 06:30N 55°53' E 012°40'713.6
2017-Aug-18 06:00N 55°60' E 012°40'713.6
2017-Aug-18 05:30N 56°06' E 012°34'713.7
2017-Aug-18 05:00N 56°12' E 012°28'814.4
2017-Aug-18 04:27N 56°19' E 012°23'5816.1
2017-Aug-18 00:53N 57°14' E 011°52'617.3
2017-Aug-18 00:30N 57°20' E 011°46'917.1
2017-Aug-18 00:00N 57°27' E 011°38'816.8
2017-Aug-17 23:31N 57°35' E 011°31'816.2
2017-Aug-17 23:01N 57°42' E 011°26'816.7
2017-Aug-17 22:30N 57°50' E 011°21'916.8
2017-Aug-17 21:59N 57°59' E 011°15'816.4
2017-Aug-17 21:29N 58°06' E 011°10'916.6
2017-Aug-17 20:57N 58°14' E 011°04'716.1
2017-Aug-17 20:30N 58°21' E 010°60'917.1
2017-Aug-17 20:00N 58°29' E 010°54'816.9
2017-Aug-17 19:30N 58°37' E 010°49'816.6
2017-Aug-17 19:00N 58°45' E 010°45'816.7
2017-Aug-17 18:30N 58°54' E 010°43'917.4
2017-Aug-17 18:00N 59°02' E 010°41'917.6
2017-Aug-17 17:30N 59°11' E 010°38'917.8
2017-Aug-17 17:00N 59°20' E 010°35'917.6
2017-Aug-17 16:30N 59°28' E 010°34'917.5
2017-Aug-17 16:00N 59°37' E 010°38'714.1
2017-Aug-17 15:30N 59°44' E 010°34'815.4
2017-Aug-17 15:00N 59°51' E 010°36'5 9.9
2017-Aug-17 14:30N 59°54' E 010°45'0 0.1
2017-Aug-17 13:59N 59°54' E 010°45'0 0.0
2017-Aug-17 13:29N 59°54' E 010°45'0 0.0
2017-Aug-17 12:59N 59°54' E 010°45'0 0.0
2017-Aug-17 12:29N 59°54' E 010°45'0 0.0
2017-Aug-17 11:59N 59°54' E 010°45'0 0.0
2017-Aug-17 11:29N 59°54' E 010°45'0 0.0
2017-Aug-17 10:59N 59°54' E 010°45'0 0.0
2017-Aug-17 10:29N 59°54' E 010°45'0 0.0
2017-Aug-17 09:59N 59°54' E 010°45'0 0.0
2017-Aug-17 09:29N 59°54' E 010°45'0 0.0
2017-Aug-17 08:59N 59°54' E 010°45'0 0.0
2017-Aug-17 08:29N 59°54' E 010°45'0 0.0
2017-Aug-17 07:59N 59°54' E 010°45'0 0.1
2017-Aug-17 07:30N 59°54' E 010°45'5 9.9
2017-Aug-17 07:01N 59°51' E 010°37'815.4
2017-Aug-17 06:30N 59°43' E 010°35'713.3
2017-Aug-17 06:01N 59°37' E 010°38'815.6
2017-Aug-17 05:31N 59°29' E 010°35'815.8
2017-Aug-17 05:01N 59°21' E 010°35'816.0
2017-Aug-17 04:31N 59°14' E 010°38'815.7
2017-Aug-17 04:01N 59°06' E 010°38'815.7
2017-Aug-17 03:31N 58°58' E 010°36'815.9
2017-Aug-17 03:01N 58°50' E 010°36'816.5
2017-Aug-17 02:30N 58°42' E 010°36'1417.0
2017-Aug-17 01:40N 58°28' E 010°42'317.0
2017-Aug-17 01:28N 58°25' E 010°44'816.8
2017-Aug-17 01:00N 58°17' E 010°48'917.0
2017-Aug-17 00:30N 58°09' E 010°53'816.9
2017-Aug-17 00:00N 58°01' E 010°58'816.8
2017-Aug-16 23:30N 57°53' E 011°04'815.8
2017-Aug-16 23:00N 57°46' E 011°10'816.1
2017-Aug-16 22:31N 57°39' E 011°16'816.6
2017-Aug-16 22:00N 57°31' E 011°24'816.7
2017-Aug-16 21:31N 57°24' E 011°30'816.8
2017-Aug-16 21:01N 57°16' E 011°35'917.0
2017-Aug-16 20:28N 57°07' E 011°41'1016.9
2017-Aug-16 19:53N 56°58' E 011°48'4616.4
2017-Aug-16 17:05N 56°17' E 012°24'215.6
2017-Aug-16 16:58N 56°15' E 012°26'716.2
2017-Aug-16 16:31N 56°08' E 012°31'816.3
2017-Aug-16 16:01N 56°02' E 012°40'815.6
2017-Aug-16 15:31N 55°55' E 012°45'815.2
2017-Aug-16 15:01N 55°47' E 012°42'611.9
2017-Aug-16 14:30N 55°42' E 012°36'0 0.5
2017-Aug-16 14:00N 55°42' E 012°36'0 0.0
2017-Aug-16 13:30N 55°42' E 012°36'0 0.0
2017-Aug-16 13:00N 55°42' E 012°36'0 0.0
2017-Aug-16 12:30N 55°42' E 012°36'0 0.0
2017-Aug-16 12:00N 55°42' E 012°36'0 0.0
2017-Aug-16 11:30N 55°42' E 012°36'0 0.0
2017-Aug-16 11:00N 55°42' E 012°36'0 0.0
2017-Aug-16 10:30N 55°42' E 012°36'0 0.0
2017-Aug-16 10:00N 55°42' E 012°36'0 0.0
2017-Aug-16 09:30N 55°42' E 012°36'0 0.0
2017-Aug-16 09:00N 55°42' E 012°36'0 0.0
2017-Aug-16 08:31N 55°42' E 012°36'0 0.0
2017-Aug-16 08:00N 55°42' E 012°36'0 0.7
2017-Aug-16 07:31N 55°42' E 012°36'510.9
2017-Aug-16 07:00N 55°47' E 012°42'714.6
2017-Aug-16 06:30N 55°54' E 012°40'714.7
2017-Aug-16 06:00N 56°01' E 012°40'714.8
2017-Aug-16 05:31N 56°07' E 012°32'816.2
2017-Aug-16 05:00N 56°14' E 012°26'1116.7
2017-Aug-16 04:21N 56°25' E 012°20'616.2
2017-Aug-16 04:00N 56°30' E 012°17'4316.8
2017-Aug-16 01:27N 57°11' E 011°54'716.6
2017-Aug-16 01:00N 57°18' E 011°47'816.5
2017-Aug-16 00:30N 57°25' E 011°40'816.8
2017-Aug-16 00:00N 57°32' E 011°33'816.8
2017-Aug-15 23:30N 57°40' E 011°27'817.0
2017-Aug-15 23:01N 57°48' E 011°22'916.9
2017-Aug-15 22:29N 57°57' E 011°17'916.9
2017-Aug-15 21:57N 58°05' E 011°11'716.8
2017-Aug-15 21:31N 58°12' E 011°05'917.1
2017-Aug-15 20:59N 58°20' E 010°59'817.1
2017-Aug-15 20:30N 58°28' E 010°54'815.8
2017-Aug-15 20:01N 58°35' E 010°49'714.7
2017-Aug-15 19:31N 58°42' E 010°45'815.1
2017-Aug-15 19:00N 58°50' E 010°44'815.0
2017-Aug-15 18:30N 58°57' E 010°42'714.8
2017-Aug-15 18:01N 59°05' E 010°40'815.3
2017-Aug-15 17:31N 59°12' E 010°38'815.8
2017-Aug-15 17:00N 59°20' E 010°35'815.4
2017-Aug-15 16:30N 59°28' E 010°34'816.1
2017-Aug-15 16:01N 59°35' E 010°38'714.1
2017-Aug-15 15:30N 59°42' E 010°35'816.3
2017-Aug-15 15:00N 59°50' E 010°35'612.3
2017-Aug-15 14:30N 59°54' E 010°45'0 0.2
2017-Aug-15 14:00N 59°54' E 010°45'0 0.0
2017-Aug-15 13:30N 59°54' E 010°45'0 0.0
2017-Aug-15 13:00N 59°54' E 010°45'0 0.0
2017-Aug-15 12:30N 59°54' E 010°45'0 0.0
2017-Aug-15 12:00N 59°54' E 010°45'0 0.0
2017-Aug-15 11:30N 59°54' E 010°45'0 0.0
2017-Aug-15 11:00N 59°54' E 010°45'0 0.0
2017-Aug-15 10:30N 59°54' E 010°45'0 0.0
2017-Aug-15 10:00N 59°54' E 010°45'0 0.0
2017-Aug-15 09:30N 59°54' E 010°45'0 0.0
2017-Aug-15 09:00N 59°54' E 010°45'0 0.0
2017-Aug-15 08:30N 59°54' E 010°45'0 0.0
2017-Aug-15 08:00N 59°54' E 010°45'0 0.5
2017-Aug-15 07:30N 59°54' E 010°44'612.7
2017-Aug-15 07:01N 59°50' E 010°35'714.2
2017-Aug-15 06:30N 59°42' E 010°36'713.9
2017-Aug-15 06:00N 59°36' E 010°38'815.3
2017-Aug-15 05:30N 59°28' E 010°34'815.6
2017-Aug-15 05:00N 59°20' E 010°36'816.0
2017-Aug-15 04:30N 59°13' E 010°39'815.8
2017-Aug-15 04:00N 59°05' E 010°40'815.8
2017-Aug-15 03:30N 58°57' E 010°42'816.1
2017-Aug-15 03:00N 58°49' E 010°44'816.7
2017-Aug-15 02:30N 58°41' E 010°48'917.3
2017-Aug-15 02:00N 58°32' E 010°52'816.7
2017-Aug-15 01:30N 58°24' E 010°57'816.3
2017-Aug-15 01:00N 58°17' E 011°01'916.7
2017-Aug-15 00:28N 58°08' E 011°06'816.7
2017-Aug-15 00:00N 58°01' E 011°11'816.2
2017-Aug-14 23:30N 57°53' E 011°16'816.2
2017-Aug-14 23:00N 57°45' E 011°20'816.3
2017-Aug-14 22:30N 57°37' E 011°24'816.1
2017-Aug-14 22:00N 57°30' E 011°29'816.4
2017-Aug-14 21:30N 57°22' E 011°32'816.9
2017-Aug-14 21:00N 57°14' E 011°37'916.8
2017-Aug-14 20:29N 57°05' E 011°42'4616.6
2017-Aug-14 17:42N 56°24' E 012°18'416.3
2017-Aug-14 17:27N 56°20' E 012°21'716.6
2017-Aug-14 17:00N 56°13' E 012°26'816.4
2017-Aug-14 16:30N 56°06' E 012°34'816.3
2017-Aug-14 16:00N 55°59' E 012°41'816.5
2017-Aug-14 15:30N 55°51' E 012°45'815.7
2017-Aug-14 15:01N 55°44' E 012°40'3 4.9
2017-Aug-14 14:28N 55°42' E 012°36'0 0.0
2017-Aug-14 13:58N 55°42' E 012°36'0 0.0
2017-Aug-14 13:28N 55°42' E 012°36'0 0.0
2017-Aug-14 12:58N 55°42' E 012°36'0 0.0
2017-Aug-14 12:28N 55°42' E 012°36'0 0.0
2017-Aug-14 11:58N 55°42' E 012°36'0 0.0
2017-Aug-14 11:28N 55°42' E 012°36'0 0.0
2017-Aug-14 10:58N 55°42' E 012°36'0 0.0
2017-Aug-14 10:28N 55°42' E 012°36'0 0.0
2017-Aug-14 09:58N 55°42' E 012°36'0 0.0
2017-Aug-14 09:28N 55°42' E 012°36'0 0.0
2017-Aug-14 08:58N 55°42' E 012°36'0 0.0
2017-Aug-14 08:28N 55°42' E 012°36'0 0.0
2017-Aug-14 07:58N 55°42' E 012°36'0 0.8
2017-Aug-14 07:31N 55°42' E 012°36'611.9
2017-Aug-14 07:00N 55°47' E 012°42'815.3
2017-Aug-14 06:30N 55°55' E 012°39'815.4
2017-Aug-14 06:01N 56°03' E 012°39'816.2
2017-Aug-14 05:30N 56°08' E 012°29'815.7
2017-Aug-14 05:00N 56°16' E 012°25'6016.1
2017-Aug-14 01:17N 57°13' E 011°53'516.5
2017-Aug-14 01:00N 57°17' E 011°48'816.8
2017-Aug-14 00:31N 57°25' E 011°41'816.3
2017-Aug-14 00:00N 57°32' E 011°35'816.2
2017-Aug-13 23:30N 57°40' E 011°29'815.6
2017-Aug-13 23:00N 57°47' E 011°23'816.0
2017-Aug-13 22:31N 57°54' E 011°18'815.9
2017-Aug-13 21:59N 58°02' E 011°12'815.8
2017-Aug-13 21:30N 58°09' E 011°08'815.8
2017-Aug-13 21:00N 58°17' E 011°03'815.9
2017-Aug-13 20:30N 58°24' E 010°58'815.5
2017-Aug-13 20:00N 58°32' E 010°53'715.0
2017-Aug-13 19:30N 58°39' E 010°48'816.0
2017-Aug-13 19:00N 58°46' E 010°46'816.7
2017-Aug-13 18:30N 58°55' E 010°44'816.7
2017-Aug-13 18:00N 59°03' E 010°41'816.8
2017-Aug-13 17:30N 59°11' E 010°38'816.7
2017-Aug-13 17:00N 59°19' E 010°35'816.6
2017-Aug-13 16:30N 59°28' E 010°34'816.2
2017-Aug-13 16:00N 59°36' E 010°38'713.7
2017-Aug-13 15:31N 59°42' E 010°35'815.2
2017-Aug-13 15:01N 59°50' E 010°35'612.7
2017-Aug-13 14:30N 59°54' E 010°44'0 0.7
2017-Aug-13 14:00N 59°54' E 010°45'0 0.0
2017-Aug-13 13:30N 59°54' E 010°45'0 0.0
2017-Aug-13 13:00N 59°54' E 010°45'0 0.0
2017-Aug-13 12:30N 59°54' E 010°45'0 0.0
2017-Aug-13 12:00N 59°54' E 010°45'0 0.0
2017-Aug-13 11:30N 59°54' E 010°45'0 0.0
2017-Aug-13 11:00N 59°54' E 010°45'0 0.0
2017-Aug-13 10:30N 59°54' E 010°45'0 0.0
2017-Aug-13 10:00N 59°54' E 010°45'0 0.0
2017-Aug-13 09:30N 59°54' E 010°45'0 0.0
2017-Aug-13 09:00N 59°54' E 010°45'0 0.0
2017-Aug-13 08:30N 59°54' E 010°45'0 0.0
2017-Aug-13 08:00N 59°54' E 010°45'0 0.4
2017-Aug-13 07:30N 59°54' E 010°44'612.0
2017-Aug-13 07:00N 59°50' E 010°36'714.3
2017-Aug-13 06:31N 59°43' E 010°35'713.2
2017-Aug-13 06:01N 59°37' E 010°38'815.2
2017-Aug-13 05:31N 59°29' E 010°35'815.1
2017-Aug-13 05:01N 59°22' E 010°35'815.3
2017-Aug-13 04:31N 59°14' E 010°38'815.5
2017-Aug-13 04:01N 59°06' E 010°40'815.2
2017-Aug-13 03:31N 58°59' E 010°42'815.7
2017-Aug-13 03:01N 58°51' E 010°43'714.8
2017-Aug-13 02:31N 58°44' E 010°45'815.2
2017-Aug-13 02:01N 58°36' E 010°50'916.5
2017-Aug-13 01:27N 58°28' E 010°55'716.3
2017-Aug-13 01:00N 58°21' E 010°60'915.9
2017-Aug-13 00:27N 58°12' E 011°05'716.0
2017-Aug-13 00:00N 58°06' E 011°09'815.6
2017-Aug-12 23:30N 57°58' E 011°13'816.4
2017-Aug-12 23:00N 57°50' E 011°18'917.3
2017-Aug-12 22:30N 57°42' E 011°22'816.6
2017-Aug-12 22:00N 57°34' E 011°27'816.9
2017-Aug-12 21:30N 57°26' E 011°31'916.9
2017-Aug-12 21:00N 57°18' E 011°35'816.9
2017-Aug-12 20:30N 57°10' E 011°39'5916.6
2017-Aug-12 16:57N 56°16' E 012°24'717.0
2017-Aug-12 16:31N 56°09' E 012°30'816.6
2017-Aug-12 16:01N 56°03' E 012°39'816.7
2017-Aug-12 15:30N 55°55' E 012°44'816.1
2017-Aug-12 15:01N 55°47' E 012°42'611.6
2017-Aug-12 14:30N 55°42' E 012°36'0 0.1
2017-Aug-12 13:59N 55°42' E 012°36'0 0.0
2017-Aug-12 13:29N 55°42' E 012°36'0 0.0
2017-Aug-12 12:59N 55°42' E 012°36'0 0.0
2017-Aug-12 12:29N 55°42' E 012°36'0 0.0
2017-Aug-12 11:59N 55°42' E 012°36'0 0.0
2017-Aug-12 11:29N 55°42' E 012°36'0 0.0
2017-Aug-12 10:59N 55°42' E 012°36'0 0.0
2017-Aug-12 10:29N 55°42' E 012°36'0 0.0
2017-Aug-12 09:59N 55°42' E 012°36'0 0.0
2017-Aug-12 09:29N 55°42' E 012°36'0 0.0
2017-Aug-12 09:00N 55°42' E 012°36'0 0.0
2017-Aug-12 08:30N 55°42' E 012°36'0 0.0
2017-Aug-12 08:01N 55°42' E 012°36'0 0.6
2017-Aug-12 07:30N 55°42' E 012°36'510.7
2017-Aug-12 07:01N 55°47' E 012°42'713.9
2017-Aug-12 06:30N 55°54' E 012°40'815.3
2017-Aug-12 06:00N 56°01' E 012°40'815.8
2017-Aug-12 05:30N 56°08' E 012°31'815.5
2017-Aug-12 05:00N 56°15' E 012°25'2816.4
2017-Aug-12 03:18N 56°42' E 012°11'3516.0
2017-Aug-12 01:08N 57°15' E 011°52'216.4
2017-Aug-12 01:00N 57°16' E 011°50'816.6
2017-Aug-12 00:30N 57°24' E 011°42'816.9
2017-Aug-12 00:01N 57°31' E 011°34'816.5
2017-Aug-11 23:30N 57°38' E 011°28'815.9
2017-Aug-11 23:00N 57°46' E 011°22'816.4
2017-Aug-11 22:30N 57°53' E 011°15'1117.4
2017-Aug-11 21:52N 58°03' E 011°07'618.0
2017-Aug-11 21:30N 58°10' E 011°04'1017.6
2017-Aug-11 20:57N 58°19' E 010°58'1417.1
2017-Aug-11 20:10N 58°31' E 010°48'316.7
2017-Aug-11 20:00N 58°34' E 010°46'1017.0
2017-Aug-11 19:26N 58°43' E 010°39'716.7
2017-Aug-11 19:00N 58°50' E 010°39'816.5
2017-Aug-11 18:30N 58°58' E 010°40'816.6
2017-Aug-11 18:00N 59°06' E 010°39'816.6
2017-Aug-11 17:30N 59°15' E 010°37'816.4
2017-Aug-11 17:00N 59°23' E 010°34'815.6
2017-Aug-11 16:30N 59°31' E 010°35'714.8
2017-Aug-11 16:00N 59°38' E 010°37'713.4
2017-Aug-11 15:30N 59°44' E 010°33'815.1
2017-Aug-11 15:00N 59°52' E 010°37'5 9.5
2017-Aug-11 14:30N 59°54' E 010°45'0 0.0
2017-Aug-11 13:30N 59°54' E 010°45'0 0.0
2017-Aug-11 13:00N 59°54' E 010°45'0 0.0
2017-Aug-11 12:30N 59°54' E 010°45'0 0.0
2017-Aug-11 12:00N 59°54' E 010°45'0 0.0
2017-Aug-11 11:27N 59°54' E 010°45'0 0.0
2017-Aug-11 11:00N 59°54' E 010°45'0 0.0
2017-Aug-11 10:30N 59°54' E 010°45'0 0.0
2017-Aug-11 10:00N 59°54' E 010°45'0 0.0
2017-Aug-11 09:30N 59°54' E 010°45'0 0.0
2017-Aug-11 09:00N 59°54' E 010°45'0 0.0
2017-Aug-11 08:30N 59°54' E 010°45'0 0.0
2017-Aug-11 08:00N 59°54' E 010°45'0 0.5
2017-Aug-11 07:30N 59°54' E 010°44'612.0
2017-Aug-11 07:01N 59°50' E 010°36'714.4
2017-Aug-11 06:30N 59°43' E 010°36'713.6
2017-Aug-11 06:00N 59°36' E 010°38'815.7
2017-Aug-11 05:30N 59°28' E 010°35'815.8
2017-Aug-11 05:00N 59°20' E 010°36'816.2
2017-Aug-11 04:30N 59°12' E 010°39'816.2
2017-Aug-11 04:00N 59°04' E 010°40'815.8
2017-Aug-11 03:30N 58°57' E 010°42'816.0
2017-Aug-11 03:00N 58°49' E 010°44'816.3
2017-Aug-11 02:30N 58°41' E 010°46'816.9
2017-Aug-11 02:00N 58°33' E 010°51'917.4
2017-Aug-11 01:30N 58°24' E 010°56'917.1
2017-Aug-11 01:00N 58°16' E 011°02'816.8
2017-Aug-11 00:30N 58°08' E 011°07'817.0
2017-Aug-11 00:00N 58°00' E 011°13'816.8
2017-Aug-10 23:30N 57°53' E 011°18'816.9
2017-Aug-10 23:00N 57°44' E 011°20'917.6
2017-Aug-10 22:30N 57°36' E 011°24'917.6
2017-Aug-10 22:00N 57°27' E 011°30'917.2
2017-Aug-10 21:31N 57°19' E 011°35'917.1
2017-Aug-10 21:00N 57°11' E 011°39'1916.2
2017-Aug-10 19:51N 56°53' E 011°52'516.2
2017-Aug-10 19:30N 56°48' E 011°55'916.2
2017-Aug-10 18:59N 56°41' E 012°03'916.1
2017-Aug-10 18:25N 56°33' E 012°11'816.3
2017-Aug-10 17:55N 56°26' E 012°17'816.4
2017-Aug-10 17:24N 56°18' E 012°23'716.6
2017-Aug-10 17:00N 56°12' E 012°28'816.7
2017-Aug-10 16:30N 56°05' E 012°37'816.0
2017-Aug-10 16:00N 55°58' E 012°42'815.8
2017-Aug-10 15:30N 55°50' E 012°44'714.7
2017-Aug-10 15:00N 55°43' E 012°39'2 3.8
2017-Aug-10 14:30N 55°42' E 012°36'0 0.0
2017-Aug-10 14:00N 55°42' E 012°36'0 0.0
2017-Aug-10 13:30N 55°42' E 012°36'0 0.0
2017-Aug-10 13:00N 55°42' E 012°36'0 0.0
2017-Aug-10 12:30N 55°42' E 012°36'0 0.0
2017-Aug-10 12:00N 55°42' E 012°36'0 0.0
2017-Aug-10 11:30N 55°42' E 012°36'0 0.0
2017-Aug-10 11:00N 55°42' E 012°36'0 0.0
2017-Aug-10 10:30N 55°42' E 012°36'0 0.0
2017-Aug-10 10:00N 55°42' E 012°36'0 0.0
2017-Aug-10 09:30N 55°42' E 012°36'0 0.0
2017-Aug-10 09:00N 55°42' E 012°36'0 0.0
2017-Aug-10 08:30N 55°42' E 012°36'0 0.0
2017-Aug-10 08:00N 55°42' E 012°36'0 0.5
2017-Aug-10 07:30N 55°42' E 012°36'5 9.8
2017-Aug-10 07:01N 55°46' E 012°41'715.0
2017-Aug-10 06:31N 55°54' E 012°40'815.5
2017-Aug-10 06:01N 56°01' E 012°40'714.9
2017-Aug-10 05:31N 56°07' E 012°31'815.0
2017-Aug-10 05:01N 56°14' E 012°26'6316.6
2017-Aug-10 01:11N 57°15' E 011°52'416.6
2017-Aug-10 00:58N 57°18' E 011°48'716.5
2017-Aug-10 00:31N 57°24' E 011°40'816.4
2017-Aug-10 00:00N 57°31' E 011°32'816.2
2017-Aug-09 23:30N 57°38' E 011°24'816.5
2017-Aug-09 23:01N 57°45' E 011°15'916.6
2017-Aug-09 22:28N 57°52' E 011°06'817.0
2017-Aug-09 22:00N 57°59' E 010°59'917.1
2017-Aug-09 21:29N 58°07' E 010°52'917.1
2017-Aug-09 20:58N 58°15' E 010°46'1716.4
2017-Aug-09 19:57N 58°31' E 010°35'716.0
2017-Aug-09 19:30N 58°38' E 010°35'916.0
2017-Aug-09 18:58N 58°47' E 010°34'817.1
2017-Aug-09 18:31N 58°55' E 010°35'816.6
2017-Aug-09 18:01N 59°03' E 010°37'816.6
2017-Aug-09 17:31N 59°11' E 010°38'917.0
2017-Aug-09 17:01N 59°19' E 010°35'917.1
2017-Aug-09 16:31N 59°28' E 010°34'816.7
2017-Aug-09 16:01N 59°36' E 010°38'714.3
2017-Aug-09 15:31N 59°43' E 010°34'816.0
2017-Aug-09 15:00N 59°51' E 010°36'610.8
2017-Aug-09 14:30N 59°54' E 010°45'0 0.0
2017-Aug-09 14:00N 59°54' E 010°45'0 0.0
2017-Aug-09 13:30N 59°54' E 010°45'0 0.0
2017-Aug-09 13:00N 59°54' E 010°45'0 0.0
2017-Aug-09 12:30N 59°54' E 010°45'0 0.0
2017-Aug-09 12:00N 59°54' E 010°45'0 0.0
2017-Aug-09 11:30N 59°54' E 010°45'0 0.0
2017-Aug-09 11:00N 59°54' E 010°45'0 0.0
2017-Aug-09 10:30N 59°54' E 010°45'0 0.0
2017-Aug-09 09:59N 59°54' E 010°45'0 0.0
2017-Aug-09 09:30N 59°54' E 010°45'0 0.0
2017-Aug-09 09:01N 59°54' E 010°45'0 0.0
2017-Aug-09 08:30N 59°54' E 010°45'0 0.0
2017-Aug-09 08:01N 59°54' E 010°45'0 0.5
2017-Aug-09 07:30N 59°54' E 010°44'611.6
2017-Aug-09 07:00N 59°50' E 010°36'714.7
2017-Aug-09 06:30N 59°43' E 010°35'714.2
2017-Aug-09 06:00N 59°36' E 010°38'815.8
2017-Aug-09 05:30N 59°28' E 010°34'815.5
2017-Aug-09 05:00N 59°20' E 010°36'815.8
2017-Aug-09 04:30N 59°13' E 010°38'815.7
2017-Aug-09 04:00N 59°05' E 010°40'815.6
2017-Aug-09 03:31N 58°57' E 010°42'815.6
2017-Aug-09 03:00N 58°49' E 010°44'815.5
2017-Aug-09 02:30N 58°42' E 010°47'816.0
2017-Aug-09 02:00N 58°34' E 010°50'815.9
2017-Aug-09 01:30N 58°26' E 010°55'917.0
2017-Aug-09 00:59N 58°18' E 011°00'816.8
2017-Aug-09 00:30N 58°10' E 011°05'816.3
2017-Aug-09 00:00N 58°03' E 011°10'816.3
2017-Aug-08 23:30N 57°55' E 011°15'816.3
2017-Aug-08 23:00N 57°47' E 011°20'816.6
2017-Aug-08 22:30N 57°39' E 011°26'816.3
2017-Aug-08 22:00N 57°31' E 011°27'816.4
2017-Aug-08 21:30N 57°24' E 011°32'816.6
2017-Aug-08 21:00N 57°15' E 011°36'816.7
2017-Aug-08 20:30N 57°07' E 011°40'916.5
2017-Aug-08 19:58N 56°59' E 011°47'4816.2
2017-Aug-08 16:59N 56°16' E 012°24'816.5
2017-Aug-08 16:30N 56°09' E 012°30'917.8
2017-Aug-08 16:00N 56°01' E 012°40'917.1
2017-Aug-08 15:31N 55°53' E 012°45'816.2
2017-Aug-08 15:00N 55°45' E 012°41'5 9.0
2017-Aug-08 14:30N 55°42' E 012°36'0 0.0
2017-Aug-08 13:59N 55°42' E 012°36'0 0.0
2017-Aug-08 13:29N 55°42' E 012°36'0 0.0
2017-Aug-08 12:59N 55°42' E 012°36'0 0.0
2017-Aug-08 12:29N 55°42' E 012°36'0 0.0
2017-Aug-08 11:59N 55°42' E 012°36'0 0.0
2017-Aug-08 11:29N 55°42' E 012°36'0 0.0
2017-Aug-08 10:59N 55°42' E 012°36'  
Track history (hours):
 
Tides and Currents Weather Stations Pressure Air Temp Water Temp Dewpoint Dewpoint Depression Visibility Wind Speed Wind Dir Waves Ship Positions

Crown Of Scandinavia

Last reported at 2017-Aug-18 10:31 UTC. Time now 2017-Aug-18 10:51 UTC.
Position N 55°42' E 012°36'.

Length 171 m; draft 6.3 m.

Type: Ship. MMSI: 219592000.

Date/timePositionNaut miles runAvg speedWind from/ knotsBaromVisibWave heightAir tempDewpointWater temp
2017-Aug-18 10:31N 55°42' E 012°36'0 0.0
2017-Aug-18 10:01N 55°42' E 012°36'0 0.0
2017-Aug-18 09:31N 55°42' E 012°36'0 0.0
2017-Aug-18 09:01N 55°42' E 012°36'0 0.0
2017-Aug-18 08:31N 55°42' E 012°36'0 0.0
2017-Aug-18 08:01N 55°42' E 012°36'0 0.7
2017-Aug-18 07:31N 55°42' E 012°36'5 9.2
2017-Aug-18 07:00N 55°46' E 012°41'714.0
2017-Aug-18 06:30N 55°53' E 012°40'713.6
2017-Aug-18 06:00N 55°60' E 012°40'713.6
2017-Aug-18 05:30N 56°06' E 012°34'713.7
2017-Aug-18 05:00N 56°12' E 012°28'814.4
2017-Aug-18 04:27N 56°19' E 012°23'5816.1
2017-Aug-18 00:53N 57°14' E 011°52'617.3
2017-Aug-18 00:30N 57°20' E 011°46'917.1
2017-Aug-18 00:00N 57°27' E 011°38'816.8
2017-Aug-17 23:31N 57°35' E 011°31'816.2
2017-Aug-17 23:01N 57°42' E 011°26'816.7
2017-Aug-17 22:30N 57°50' E 011°21'916.8
2017-Aug-17 21:59N 57°59' E 011°15'816.4
2017-Aug-17 21:29N 58°06' E 011°10'916.6
2017-Aug-17 20:57N 58°14' E 011°04'716.1
2017-Aug-17 20:30N 58°21' E 010°60'917.1
2017-Aug-17 20:00N 58°29' E 010°54'816.9
2017-Aug-17 19:30N 58°37' E 010°49'816.6
2017-Aug-17 19:00N 58°45' E 010°45'816.7
2017-Aug-17 18:30N 58°54' E 010°43'917.4
2017-Aug-17 18:00N 59°02' E 010°41'917.6
2017-Aug-17 17:30N 59°11' E 010°38'917.8
2017-Aug-17 17:00N 59°20' E 010°35'917.6
2017-Aug-17 16:30N 59°28' E 010°34'917.5
2017-Aug-17 16:00N 59°37' E 010°38'714.1
2017-Aug-17 15:30N 59°44' E 010°34'815.4
2017-Aug-17 15:00N 59°51' E 010°36'5 9.9
2017-Aug-17 14:30N 59°54' E 010°45'0 0.1
2017-Aug-17 13:59N 59°54' E 010°45'0 0.0
2017-Aug-17 13:29N 59°54' E 010°45'0 0.0
2017-Aug-17 12:59N 59°54' E 010°45'0 0.0
2017-Aug-17 12:29N 59°54' E 010°45'0 0.0
2017-Aug-17 11:59N 59°54' E 010°45'0 0.0
2017-Aug-17 11:29N 59°54' E 010°45'0 0.0
2017-Aug-17 10:59N 59°54' E 010°45'0 0.0
2017-Aug-17 10:29N 59°54' E 010°45'0 0.0
2017-Aug-17 09:59N 59°54' E 010°45'0 0.0
2017-Aug-17 09:29N 59°54' E 010°45'0 0.0
2017-Aug-17 08:59N 59°54' E 010°45'0 0.0
2017-Aug-17 08:29N 59°54' E 010°45'0 0.0
2017-Aug-17 07:59N 59°54' E 010°45'0 0.1
2017-Aug-17 07:30N 59°54' E 010°45'5 9.9
2017-Aug-17 07:01N 59°51' E 010°37'815.4
2017-Aug-17 06:30N 59°43' E 010°35'713.3
2017-Aug-17 06:01N 59°37' E 010°38'815.6
2017-Aug-17 05:31N 59°29' E 010°35'815.8
2017-Aug-17 05:01N 59°21' E 010°35'816.0
2017-Aug-17 04:31N 59°14' E 010°38'815.7
2017-Aug-17 04:01N 59°06' E 010°38'815.7
2017-Aug-17 03:31N 58°58' E 010°36'815.9
2017-Aug-17 03:01N 58°50' E 010°36'816.5
2017-Aug-17 02:30N 58°42' E 010°36'1417.0
2017-Aug-17 01:40N 58°28' E 010°42'317.0
2017-Aug-17 01:28N 58°25' E 010°44'816.8
2017-Aug-17 01:00N 58°17' E 010°48'917.0
2017-Aug-17 00:30N 58°09' E 010°53'816.9
2017-Aug-17 00:00N 58°01' E 010°58'816.8
2017-Aug-16 23:30N 57°53' E 011°04'815.8
2017-Aug-16 23:00N 57°46' E 011°10'816.1
2017-Aug-16 22:31N 57°39' E 011°16'816.6
2017-Aug-16 22:00N 57°31' E 011°24'816.7
2017-Aug-16 21:31N 57°24' E 011°30'816.8
2017-Aug-16 21:01N 57°16' E 011°35'917.0
2017-Aug-16 20:28N 57°07' E 011°41'1016.9
2017-Aug-16 19:53N 56°58' E 011°48'4616.4
2017-Aug-16 17:05N 56°17' E 012°24'215.6
2017-Aug-16 16:58N 56°15' E 012°26'716.2
2017-Aug-16 16:31N 56°08' E 012°31'816.3
2017-Aug-16 16:01N 56°02' E 012°40'815.6
2017-Aug-16 15:31N 55°55' E 012°45'815.2
2017-Aug-16 15:01N 55°47' E 012°42'611.9
2017-Aug-16 14:30N 55°42' E 012°36'0 0.5
2017-Aug-16 14:00N 55°42' E 012°36'0 0.0
2017-Aug-16 13:30N 55°42' E 012°36'0 0.0
2017-Aug-16 13:00N 55°42' E 012°36'0 0.0
2017-Aug-16 12:30N 55°42' E 012°36'0 0.0
2017-Aug-16 12:00N 55°42' E 012°36'0 0.0
2017-Aug-16 11:30N 55°42' E 012°36'0 0.0
2017-Aug-16 11:00N 55°42' E 012°36'0 0.0
2017-Aug-16 10:30N 55°42' E 012°36'0 0.0
2017-Aug-16 10:00N 55°42' E 012°36'0 0.0
2017-Aug-16 09:30N 55°42' E 012°36'0 0.0
2017-Aug-16 09:00N 55°42' E 012°36'0 0.0
2017-Aug-16 08:31N 55°42' E 012°36'0 0.0
2017-Aug-16 08:00N 55°42' E 012°36'0 0.7
2017-Aug-16 07:31N 55°42' E 012°36'510.9
2017-Aug-16 07:00N 55°47' E 012°42'714.6
2017-Aug-16 06:30N 55°54' E 012°40'714.7
2017-Aug-16 06:00N 56°01' E 012°40'714.8
2017-Aug-16 05:31N 56°07' E 012°32'816.2
2017-Aug-16 05:00N 56°14' E 012°26'1116.7
2017-Aug-16 04:21N 56°25' E 012°20'616.2
2017-Aug-16 04:00N 56°30' E 012°17'4316.8
2017-Aug-16 01:27N 57°11' E 011°54'716.6
2017-Aug-16 01:00N 57°18' E 011°47'816.5
2017-Aug-16 00:30N 57°25' E 011°40'816.8
2017-Aug-16 00:00N 57°32' E 011°33'816.8
2017-Aug-15 23:30N 57°40' E 011°27'817.0
2017-Aug-15 23:01N 57°48' E 011°22'916.9
2017-Aug-15 22:29N 57°57' E 011°17'916.9
2017-Aug-15 21:57N 58°05' E 011°11'716.8
2017-Aug-15 21:31N 58°12' E 011°05'917.1
2017-Aug-15 20:59N 58°20' E 010°59'817.1
2017-Aug-15 20:30N 58°28' E 010°54'815.8
2017-Aug-15 20:01N 58°35' E 010°49'714.7
2017-Aug-15 19:31N 58°42' E 010°45'815.1
2017-Aug-15 19:00N 58°50' E 010°44'815.0
2017-Aug-15 18:30N 58°57' E 010°42'714.8
2017-Aug-15 18:01N 59°05' E 010°40'815.3
2017-Aug-15 17:31N 59°12' E 010°38'815.8
2017-Aug-15 17:00N 59°20' E 010°35'815.4
2017-Aug-15 16:30N 59°28' E 010°34'816.1
2017-Aug-15 16:01N 59°35' E 010°38'714.1
2017-Aug-15 15:30N 59°42' E 010°35'816.3
2017-Aug-15 15:00N 59°50' E 010°35'612.3
2017-Aug-15 14:30N 59°54' E 010°45'0 0.2
2017-Aug-15 14:00N 59°54' E 010°45'0 0.0
2017-Aug-15 13:30N 59°54' E 010°45'0 0.0
2017-Aug-15 13:00N 59°54' E 010°45'0 0.0
2017-Aug-15 12:30N 59°54' E 010°45'0 0.0
2017-Aug-15 12:00N 59°54' E 010°45'0 0.0
2017-Aug-15 11:30N 59°54' E 010°45'0 0.0
2017-Aug-15 11:00N 59°54' E 010°45'0 0.0
2017-Aug-15 10:30N 59°54' E 010°45'0 0.0
2017-Aug-15 10:00N 59°54' E 010°45'0 0.0
2017-Aug-15 09:30N 59°54' E 010°45'0 0.0
2017-Aug-15 09:00N 59°54' E 010°45'0 0.0
2017-Aug-15 08:30N 59°54' E 010°45'0 0.0
2017-Aug-15 08:00N 59°54' E 010°45'0 0.5
2017-Aug-15 07:30N 59°54' E 010°44'612.7
2017-Aug-15 07:01N 59°50' E 010°35'714.2
2017-Aug-15 06:30N 59°42' E 010°36'713.9
2017-Aug-15 06:00N 59°36' E 010°38'815.3
2017-Aug-15 05:30N 59°28' E 010°34'815.6
2017-Aug-15 05:00N 59°20' E 010°36'816.0
2017-Aug-15 04:30N 59°13' E 010°39'815.8
2017-Aug-15 04:00N 59°05' E 010°40'815.8
2017-Aug-15 03:30N 58°57' E 010°42'816.1
2017-Aug-15 03:00N 58°49' E 010°44'816.7
2017-Aug-15 02:30N 58°41' E 010°48'917.3
2017-Aug-15 02:00N 58°32' E 010°52'816.7
2017-Aug-15 01:30N 58°24' E 010°57'816.3
2017-Aug-15 01:00N 58°17' E 011°01'916.7
2017-Aug-15 00:28N 58°08' E 011°06'816.7
2017-Aug-15 00:00N 58°01' E 011°11'816.2
2017-Aug-14 23:30N 57°53' E 011°16'816.2
2017-Aug-14 23:00N 57°45' E 011°20'816.3
2017-Aug-14 22:30N 57°37' E 011°24'816.1
2017-Aug-14 22:00N 57°30' E 011°29'816.4
2017-Aug-14 21:30N 57°22' E 011°32'816.9
2017-Aug-14 21:00N 57°14' E 011°37'916.8
2017-Aug-14 20:29N 57°05' E 011°42'4616.6
2017-Aug-14 17:42N 56°24' E 012°18'416.3
2017-Aug-14 17:27N 56°20' E 012°21'716.6
2017-Aug-14 17:00N 56°13' E 012°26'816.4
2017-Aug-14 16:30N 56°06' E 012°34'816.3
2017-Aug-14 16:00N 55°59' E 012°41'816.5
2017-Aug-14 15:30N 55°51' E 012°45'815.7
2017-Aug-14 15:01N 55°44' E 012°40'3 4.9
2017-Aug-14 14:28N 55°42' E 012°36'0 0.0
2017-Aug-14 13:58N 55°42' E 012°36'0 0.0
2017-Aug-14 13:28N 55°42' E 012°36'0 0.0
2017-Aug-14 12:58N 55°42' E 012°36'0 0.0
2017-Aug-14 12:28N 55°42' E 012°36'0 0.0
2017-Aug-14 11:58N 55°42' E 012°36'0 0.0
2017-Aug-14 11:28N 55°42' E 012°36'0 0.0
2017-Aug-14 10:58N 55°42' E 012°36'0 0.0
2017-Aug-14 10:28N 55°42' E 012°36'0 0.0
2017-Aug-14 09:58N 55°42' E 012°36'0 0.0
2017-Aug-14 09:28N 55°42' E 012°36'0 0.0
2017-Aug-14 08:58N 55°42' E 012°36'0 0.0
2017-Aug-14 08:28N 55°42' E 012°36'0 0.0
2017-Aug-14 07:58N 55°42' E 012°36'0 0.8
2017-Aug-14 07:31N 55°42' E 012°36'611.9
2017-Aug-14 07:00N 55°47' E 012°42'815.3
2017-Aug-14 06:30N 55°55' E 012°39'815.4
2017-Aug-14 06:01N 56°03' E 012°39'816.2
2017-Aug-14 05:30N 56°08' E 012°29'815.7
2017-Aug-14 05:00N 56°16' E 012°25'6016.1
2017-Aug-14 01:17N 57°13' E 011°53'516.5
2017-Aug-14 01:00N 57°17' E 011°48'816.8
2017-Aug-14 00:31N 57°25' E 011°41'816.3
2017-Aug-14 00:00N 57°32' E 011°35'816.2
2017-Aug-13 23:30N 57°40' E 011°29'815.6
2017-Aug-13 23:00N 57°47' E 011°23'816.0
2017-Aug-13 22:31N 57°54' E 011°18'815.9
2017-Aug-13 21:59N 58°02' E 011°12'815.8
2017-Aug-13 21:30N 58°09' E 011°08'815.8
2017-Aug-13 21:00N 58°17' E 011°03'815.9
2017-Aug-13 20:30N 58°24' E 010°58'815.5
2017-Aug-13 20:00N 58°32' E 010°53'715.0
2017-Aug-13 19:30N 58°39' E 010°48'816.0
2017-Aug-13 19:00N 58°46' E 010°46'816.7
2017-Aug-13 18:30N 58°55' E 010°44'816.7
2017-Aug-13 18:00N 59°03' E 010°41'816.8
2017-Aug-13 17:30N 59°11' E 010°38'816.7
2017-Aug-13 17:00N 59°19' E 010°35'816.6
2017-Aug-13 16:30N 59°28' E 010°34'816.2
2017-Aug-13 16:00N 59°36' E 010°38'713.7
2017-Aug-13 15:31N 59°42' E 010°35'815.2
2017-Aug-13 15:01N 59°50' E 010°35'612.7
2017-Aug-13 14:30N 59°54' E 010°44'0 0.7
2017-Aug-13 14:00N 59°54' E 010°45'0 0.0
2017-Aug-13 13:30N 59°54' E 010°45'0 0.0
2017-Aug-13 13:00N 59°54' E 010°45'0 0.0
2017-Aug-13 12:30N 59°54' E 010°45'0 0.0
2017-Aug-13 12:00N 59°54' E 010°45'0 0.0
2017-Aug-13 11:30N 59°54' E 010°45'0 0.0
2017-Aug-13 11:00N 59°54' E 010°45'0 0.0
2017-Aug-13 10:30N 59°54' E 010°45'0 0.0
2017-Aug-13 10:00N 59°54' E 010°45'0 0.0
2017-Aug-13 09:30N 59°54' E 010°45'0 0.0
2017-Aug-13 09:00N 59°54' E 010°45'0 0.0
2017-Aug-13 08:30N 59°54' E 010°45'0 0.0
2017-Aug-13 08:00N 59°54' E 010°45'0 0.4
2017-Aug-13 07:30N 59°54' E 010°44'612.0
2017-Aug-13 07:00N 59°50' E 010°36'714.3
2017-Aug-13 06:31N 59°43' E 010°35'713.2
2017-Aug-13 06:01N 59°37' E 010°38'815.2
2017-Aug-13 05:31N 59°29' E 010°35'815.1
2017-Aug-13 05:01N 59°22' E 010°35'815.3
2017-Aug-13 04:31N 59°14' E 010°38'815.5
2017-Aug-13 04:01N 59°06' E 010°40'815.2
2017-Aug-13 03:31N 58°59' E 010°42'815.7
2017-Aug-13 03:01N 58°51' E 010°43'714.8
2017-Aug-13 02:31N 58°44' E 010°45'815.2
2017-Aug-13 02:01N 58°36' E 010°50'916.5
2017-Aug-13 01:27N 58°28' E 010°55'716.3
2017-Aug-13 01:00N 58°21' E 010°60'915.9
2017-Aug-13 00:27N 58°12' E 011°05'716.0
2017-Aug-13 00:00N 58°06' E 011°09'815.6
2017-Aug-12 23:30N 57°58' E 011°13'816.4
2017-Aug-12 23:00N 57°50' E 011°18'917.3
2017-Aug-12 22:30N 57°42' E 011°22'816.6
2017-Aug-12 22:00N 57°34' E 011°27'816.9
2017-Aug-12 21:30N 57°26' E 011°31'916.9
2017-Aug-12 21:00N 57°18' E 011°35'816.9
2017-Aug-12 20:30N 57°10' E 011°39'5916.6
2017-Aug-12 16:57N 56°16' E 012°24'717.0
2017-Aug-12 16:31N 56°09' E 012°30'816.6
2017-Aug-12 16:01N 56°03' E 012°39'816.7
2017-Aug-12 15:30N 55°55' E 012°44'816.1
2017-Aug-12 15:01N 55°47' E 012°42'611.6
2017-Aug-12 14:30N 55°42' E 012°36'0 0.1
2017-Aug-12 13:59N 55°42' E 012°36'0 0.0
2017-Aug-12 13:29N 55°42' E 012°36'0 0.0
2017-Aug-12 12:59N 55°42' E 012°36'0 0.0
2017-Aug-12 12:29N 55°42' E 012°36'0 0.0
2017-Aug-12 11:59N 55°42' E 012°36'0 0.0
2017-Aug-12 11:29N 55°42' E 012°36'0 0.0
2017-Aug-12 10:59N 55°42' E 012°36'0 0.0
2017-Aug-12 10:29N 55°42' E 012°36'0 0.0
2017-Aug-12 09:59N 55°42' E 012°36'0 0.0
2017-Aug-12 09:29N 55°42' E 012°36'0 0.0
2017-Aug-12 09:00N 55°42' E 012°36'0 0.0
2017-Aug-12 08:30N 55°42' E 012°36'0 0.0
2017-Aug-12 08:01N 55°42' E 012°36'0 0.6
2017-Aug-12 07:30N 55°42' E 012°36'510.7
2017-Aug-12 07:01N 55°47' E 012°42'713.9
2017-Aug-12 06:30N 55°54' E 012°40'815.3
2017-Aug-12 06:00N 56°01' E 012°40'815.8
2017-Aug-12 05:30N 56°08' E 012°31'815.5
2017-Aug-12 05:00N 56°15' E 012°25'2816.4
2017-Aug-12 03:18N 56°42' E 012°11'3516.0
2017-Aug-12 01:08N 57°15' E 011°52'216.4
2017-Aug-12 01:00N 57°16' E 011°50'816.6
2017-Aug-12 00:30N 57°24' E 011°42'816.9
2017-Aug-12 00:01N 57°31' E 011°34'816.5
2017-Aug-11 23:30N 57°38' E 011°28'815.9
2017-Aug-11 23:00N 57°46' E 011°22'816.4
2017-Aug-11 22:30N 57°53' E 011°15'1117.4
2017-Aug-11 21:52N 58°03' E 011°07'618.0
2017-Aug-11 21:30N 58°10' E 011°04'1017.6
2017-Aug-11 20:57N 58°19' E 010°58'1417.1
2017-Aug-11 20:10N 58°31' E 010°48'316.7
2017-Aug-11 20:00N 58°34' E 010°46'1017.0
2017-Aug-11 19:26N 58°43' E 010°39'716.7
2017-Aug-11 19:00N 58°50' E 010°39'816.5
2017-Aug-11 18:30N 58°58' E 010°40'816.6
2017-Aug-11 18:00N 59°06' E 010°39'816.6
2017-Aug-11 17:30N 59°15' E 010°37'816.4
2017-Aug-11 17:00N 59°23' E 010°34'815.6
2017-Aug-11 16:30N 59°31' E 010°35'714.8
2017-Aug-11 16:00N 59°38' E 010°37'713.4
2017-Aug-11 15:30N 59°44' E 010°33'815.1
2017-Aug-11 15:00N 59°52' E 010°37'5 9.5
2017-Aug-11 14:30N 59°54' E 010°45'0 0.0
2017-Aug-11 13:30N 59°54' E 010°45'0 0.0
2017-Aug-11 13:00N 59°54' E 010°45'0 0.0
2017-Aug-11 12:30N 59°54' E 010°45'0 0.0
2017-Aug-11 12:00N 59°54' E 010°45'0 0.0
2017-Aug-11 11:27N 59°54' E 010°45'0 0.0
2017-Aug-11 11:00N 59°54' E 010°45'0 0.0
2017-Aug-11 10:30N 59°54' E 010°45'0 0.0
2017-Aug-11 10:00N 59°54' E 010°45'0 0.0
2017-Aug-11 09:30N 59°54' E 010°45'0 0.0
2017-Aug-11 09:00N 59°54' E 010°45'0 0.0
2017-Aug-11 08:30N 59°54' E 010°45'0 0.0
2017-Aug-11 08:00N 59°54' E 010°45'0 0.5
2017-Aug-11 07:30N 59°54' E 010°44'612.0
2017-Aug-11 07:01N 59°50' E 010°36'714.4
2017-Aug-11 06:30N 59°43' E 010°36'713.6
2017-Aug-11 06:00N 59°36' E 010°38'815.7
2017-Aug-11 05:30N 59°28' E 010°35'815.8
2017-Aug-11 05:00N 59°20' E 010°36'816.2
2017-Aug-11 04:30N 59°12' E 010°39'816.2
2017-Aug-11 04:00N 59°04' E 010°40'815.8
2017-Aug-11 03:30N 58°57' E 010°42'816.0
2017-Aug-11 03:00N 58°49' E 010°44'816.3
2017-Aug-11 02:30N 58°41' E 010°46'816.9
2017-Aug-11 02:00N 58°33' E 010°51'917.4
2017-Aug-11 01:30N 58°24' E 010°56'917.1
2017-Aug-11 01:00N 58°16' E 011°02'816.8
2017-Aug-11 00:30N 58°08' E 011°07'817.0
2017-Aug-11 00:00N 58°00' E 011°13'816.8
2017-Aug-10 23:30N 57°53' E 011°18'816.9
2017-Aug-10 23:00N 57°44' E 011°20'917.6
2017-Aug-10 22:30N 57°36' E 011°24'917.6
2017-Aug-10 22:00N 57°27' E 011°30'917.2
2017-Aug-10 21:31N 57°19' E 011°35'917.1
2017-Aug-10 21:00N 57°11' E 011°39'1916.2
2017-Aug-10 19:51N 56°53' E 011°52'516.2
2017-Aug-10 19:30N 56°48' E 011°55'916.2
2017-Aug-10 18:59N 56°41' E 012°03'916.1
2017-Aug-10 18:25N 56°33' E 012°11'816.3
2017-Aug-10 17:55N 56°26' E 012°17'816.4
2017-Aug-10 17:24N 56°18' E 012°23'716.6
2017-Aug-10 17:00N 56°12' E 012°28'816.7
2017-Aug-10 16:30N 56°05' E 012°37'816.0
2017-Aug-10 16:00N 55°58' E 012°42'815.8
2017-Aug-10 15:30N 55°50' E 012°44'714.7
2017-Aug-10 15:00N 55°43' E 012°39'2 3.8
2017-Aug-10 14:30N 55°42' E 012°36'0 0.0
2017-Aug-10 14:00N 55°42' E 012°36'0 0.0
2017-Aug-10 13:30N 55°42' E 012°36'0 0.0
2017-Aug-10 13:00N 55°42' E 012°36'0 0.0
2017-Aug-10 12:30N 55°42' E 012°36'0 0.0
2017-Aug-10 12:00N 55°42' E 012°36'0 0.0
2017-Aug-10 11:30N 55°42' E 012°36'0 0.0
2017-Aug-10 11:00N 55°42' E 012°36'0 0.0
2017-Aug-10 10:30N 55°42' E 012°36'0 0.0
2017-Aug-10 10:00N 55°42' E 012°36'0 0.0
2017-Aug-10 09:30N 55°42' E 012°36'0 0.0
2017-Aug-10 09:00N 55°42' E 012°36'0 0.0
2017-Aug-10 08:30N 55°42' E 012°36'0 0.0
2017-Aug-10 08:00N 55°42' E 012°36'0 0.5
2017-Aug-10 07:30N 55°42' E 012°36'5 9.8
2017-Aug-10 07:01N 55°46' E 012°41'715.0
2017-Aug-10 06:31N 55°54' E 012°40'815.5
2017-Aug-10 06:01N 56°01' E 012°40'714.9
2017-Aug-10 05:31N 56°07' E 012°31'815.0
2017-Aug-10 05:01N 56°14' E 012°26'6316.6
2017-Aug-10 01:11N 57°15' E 011°52'416.6
2017-Aug-10 00:58N 57°18' E 011°48'716.5
2017-Aug-10 00:31N 57°24' E 011°40'816.4
2017-Aug-10 00:00N 57°31' E 011°32'816.2
2017-Aug-09 23:30N 57°38' E 011°24'816.5
2017-Aug-09 23:01N 57°45' E 011°15'916.6
2017-Aug-09 22:28N 57°52' E 011°06'817.0
2017-Aug-09 22:00N 57°59' E 010°59'917.1
2017-Aug-09 21:29N 58°07' E 010°52'917.1
2017-Aug-09 20:58N 58°15' E 010°46'1716.4
2017-Aug-09 19:57N 58°31' E 010°35'716.0
2017-Aug-09 19:30N 58°38' E 010°35'916.0
2017-Aug-09 18:58N 58°47' E 010°34'817.1
2017-Aug-09 18:31N 58°55' E 010°35'816.6
2017-Aug-09 18:01N 59°03' E 010°37'816.6
2017-Aug-09 17:31N 59°11' E 010°38'917.0
2017-Aug-09 17:01N 59°19' E 010°35'917.1
2017-Aug-09 16:31N 59°28' E 010°34'816.7
2017-Aug-09 16:01N 59°36' E 010°38'714.3
2017-Aug-09 15:31N 59°43' E 010°34'816.0
2017-Aug-09 15:00N 59°51' E 010°36'610.8
2017-Aug-09 14:30N 59°54' E 010°45'0 0.0
2017-Aug-09 14:00N 59°54' E 010°45'0 0.0
2017-Aug-09 13:30N 59°54' E 010°45'0 0.0
2017-Aug-09 13:00N 59°54' E 010°45'0 0.0
2017-Aug-09 12:30N 59°54' E 010°45'0 0.0
2017-Aug-09 12:00N 59°54' E 010°45'0 0.0
2017-Aug-09 11:30N 59°54' E 010°45'0 0.0
2017-Aug-09 11:00N 59°54' E 010°45'0 0.0
2017-Aug-09 10:30N 59°54' E 010°45'0 0.0
2017-Aug-09 09:59N 59°54' E 010°45'0 0.0
2017-Aug-09 09:30N 59°54' E 010°45'0 0.0
2017-Aug-09 09:01N 59°54' E 010°45'0 0.0
2017-Aug-09 08:30N 59°54' E 010°45'0 0.0
2017-Aug-09 08:01N 59°54' E 010°45'0 0.5
2017-Aug-09 07:30N 59°54' E 010°44'611.6
2017-Aug-09 07:00N 59°50' E 010°36'714.7
2017-Aug-09 06:30N 59°43' E 010°35'714.2
2017-Aug-09 06:00N 59°36' E 010°38'815.8
2017-Aug-09 05:30N 59°28' E 010°34'815.5
2017-Aug-09 05:00N 59°20' E 010°36'815.8
2017-Aug-09 04:30N 59°13' E 010°38'815.7
2017-Aug-09 04:00N 59°05' E 010°40'815.6
2017-Aug-09 03:31N 58°57' E 010°42'815.6
2017-Aug-09 03:00N 58°49' E 010°44'815.5
2017-Aug-09 02:30N 58°42' E 010°47'816.0
2017-Aug-09 02:00N 58°34' E 010°50'815.9
2017-Aug-09 01:30N 58°26' E 010°55'917.0
2017-Aug-09 00:59N 58°18' E 011°00'816.8
2017-Aug-09 00:30N 58°10' E 011°05'816.3
2017-Aug-09 00:00N 58°03' E 011°10'816.3
2017-Aug-08 23:30N 57°55' E 011°15'816.3
2017-Aug-08 23:00N 57°47' E 011°20'816.6
2017-Aug-08 22:30N 57°39' E 011°26'816.3
2017-Aug-08 22:00N 57°31' E 011°27'816.4
2017-Aug-08 21:30N 57°24' E 011°32'816.6
2017-Aug-08 21:00N 57°15' E 011°36'816.7
2017-Aug-08 20:30N 57°07' E 011°40'916.5
2017-Aug-08 19:58N 56°59' E 011°47'4816.2
2017-Aug-08 16:59N 56°16' E 012°24'816.5
2017-Aug-08 16:30N 56°09' E 012°30'917.8
2017-Aug-08 16:00N 56°01' E 012°40'917.1
2017-Aug-08 15:31N 55°53' E 012°45'816.2
2017-Aug-08 15:00N 55°45' E 012°41'5 9.0
2017-Aug-08 14:30N 55°42' E 012°36'0 0.0
2017-Aug-08 13:59N 55°42' E 012°36'0 0.0
2017-Aug-08 13:29N 55°42' E 012°36'0 0.0
2017-Aug-08 12:59N 55°42' E 012°36'0 0.0
2017-Aug-08 12:29N 55°42' E 012°36'0 0.0
2017-Aug-08 11:59N 55°42' E 012°36'0 0.0
2017-Aug-08 11:29N 55°42' E 012°36'0 0.0
2017-Aug-08 10:59N 55°42' E 012°36'  

Dump ship's entire track history